Time;durP1;ratioP1;P1;durP2;ratioP2;P2;SDS_P1;SDS_P2;PMS_P1;PMS_P2;Temp;Humidity;BMP_temperature;BMP_pressure;BME280_temperature;BME280_humidity;BME280_pressure;Samples;Min_cycle;Max_cycle;Signal;HPM_P1;HPM_P2
2022/09/01 00:00:37;;;;;;;;;20.75;18.75;;;;;24.94;54.02;100484.44;146590;644;46010;-75
2022/09/01 00:03:41;;;;;;;;;19.50;18.50;;;;;24.91;53.84;100493.31;146601;614;46010;-76
2022/09/01 00:06:53;;;;;;;;;18.00;18.00;;;;;24.88;54.41;100490.69;146594;618;46019;-75
2022/09/01 00:09:58;;;;;;;;;17.00;16.50;;;;;24.83;54.21;100492.53;146601;640;46010;-78
2022/09/01 00:12:59;;;;;;;;;18.00;17.25;;;;;24.80;55.25;100488.16;146598;624;46011;-77
2022/09/01 00:16:00;;;;;;;;;19.25;16.00;;;;;24.79;54.84;100494.31;146600;646;46008;-77
2022/09/01 00:18:56;;;;;;;;;19.00;18.00;;;;;24.82;54.96;100502.25;146597;628;46019;-74
2022/09/01 00:21:59;;;;;;;;;;;;;;;;;;;;;
2022/09/01 00:24:55;;;;;;;;;19.25;18.25;;;;;24.78;55.62;100502.31;146593;637;47012;-76
2022/09/01 00:28:03;;;;;;;;;;;;;;;;;;;;;
2022/09/01 00:31:25;;;;;;;;;19.25;17.75;;;;;22.84;55.97;100206.53;146600;565;46018;-79
2022/09/01 00:34:32;;;;;;;;;22.50;20.25;;;;;24.50;56.22;100502.56;146599;595;46019;-79
2022/09/01 00:37:24;;;;;;;;;21.75;19.00;;;;;24.51;56.87;100506.97;146598;592;46018;-78
2022/09/01 00:40:19;;;;;;;;;16.50;14.50;;;;;24.52;56.84;100506.09;146598;573;46018;-78
2022/09/01 00:43:28;;;;;;;;;18.50;18.50;;;;;24.48;56.58;100498.19;146594;588;46914;-78
2022/09/01 00:46:33;;;;;;;;;19.75;18.50;;;;;24.37;56.60;100504.44;146600;578;46018;-78
2022/09/01 00:50:01;;;;;;;;;20.00;19.00;;;;;24.25;56.77;100495.72;146597;584;47010;-71
2022/09/01 00:52:57;;;;;;;;;20.50;20.00;;;;;24.13;57.81;100494.03;146600;589;46018;-77
2022/09/01 00:55:57;;;;;;;;;22.00;22.00;;;;;24.05;57.87;100485.25;146594;573;46019;-78
2022/09/01 00:59:03;;;;;;;;;21.75;18.50;;;;;23.98;57.83;100479.12;146597;575;46018;-79
2022/09/01 01:02:04;;;;;;;;;19.00;17.50;;;;;23.94;58.40;100478.28;146597;596;46018;-74
2022/09/01 01:05:09;;;;;;;;;21.50;21.25;;;;;23.96;58.26;100481.81;146596;563;46019;-75
2022/09/01 01:08:06;;;;;;;;;19.25;16.75;;;;;23.96;58.33;100476.50;146593;569;46018;-77
2022/09/01 01:11:02;;;;;;;;;15.50;14.75;;;;;23.96;58.68;100473.00;146598;564;46019;-82
2022/09/01 01:14:11;;;;;;;;;22.50;19.00;;;;;23.92;58.26;100472.09;146596;618;46018;-80
2022/09/01 01:17:06;;;;;;;;;24.75;20.25;;;;;23.87;58.73;100458.03;146599;577;46010;-83
2022/09/01 01:23:44;;;;;;;;;19.25;17.75;;;;;23.82;59.16;100465.13;146598;604;46018;-82
2022/09/01 01:26:48;;;;;;;;;;;;;;;;;;;;;
2022/09/01 01:29:49;;;;;;;;;19.75;18.75;;;;;23.81;58.89;100451.91;146591;583;46018;-79
2022/09/01 01:32:56;;;;;;;;;18.00;18.00;;;;;23.86;57.99;100465.97;146593;610;47012;-79
2022/09/01 01:35:57;;;;;;;;;16.25;16.00;;;;;23.90;57.43;100468.63;146595;578;46018;-81
2022/09/01 01:39:08;;;;;;;;;18.50;16.00;;;;;24.00;56.47;100474.72;146592;571;46018;-79
2022/09/01 01:42:06;;;;;;;;;21.25;21.00;;;;;24.07;57.03;100478.19;146595;572;46010;-79
2022/09/01 01:45:03;;;;;;;;;18.25;18.25;;;;;24.11;57.37;100483.47;146597;602;46018;-80
2022/09/01 01:48:07;;;;;;;;;20.50;18.25;;;;;24.10;57.51;100480.81;146596;569;46019;-79
2022/09/01 01:51:10;;;;;;;;;19.75;18.25;;;;;24.08;57.60;100482.59;146596;572;46010;-78
2022/09/01 01:54:06;;;;;;;;;22.00;19.00;;;;;24.05;57.57;100488.81;146596;589;46018;-86
2022/09/01 01:57:10;;;;;;;;;20.75;18.75;;;;;24.02;57.72;100499.44;146597;713;46010;-81
2022/09/01 02:00:03;;;;;;;;;20.50;19.00;;;;;23.96;57.63;100500.34;146593;604;46010;-82
2022/09/01 02:02:58;;;;;;;;;20.25;20.00;;;;;23.93;57.73;100504.78;146594;679;46012;-79
2022/09/01 02:05:55;;;;;;;;;18.00;17.75;;;;;23.93;57.72;100503.03;146597;585;46010;-81
2022/09/01 02:08:51;;;;;;;;;20.00;17.75;;;;;23.97;58.07;100502.09;146596;570;46018;-83
2022/09/01 02:11:53;;;;;;;;;19.50;18.75;;;;;23.95;57.67;100501.22;146598;615;46012;-84
2022/09/01 02:14:53;;;;;;;;;21.50;19.50;;;;;23.89;57.03;100508.34;146591;563;47010;-83
2022/09/01 02:18:00;;;;;;;;;20.50;19.50;;;;;23.76;57.19;100507.53;146599;588;46017;-92
2022/09/01 02:21:19;;;;;;;;;21.75;19.25;;;;;23.66;56.66;100511.97;146593;642;47029;-83
2022/09/01 02:24:26;;;;;;;;;16.00;16.00;;;;;23.66;56.54;100521.69;146594;630;46018;-77
2022/09/01 02:27:24;;;;;;;;;21.00;21.00;;;;;23.69;57.59;100527.00;146599;586;46010;-74
2022/09/01 02:30:23;;;;;;;;;19.25;17.25;;;;;23.72;57.26;100519.03;146592;595;46018;-80
2022/09/01 02:33:45;;;;;;;;;16.50;16.50;;;;;23.76;57.11;100531.34;146594;576;46019;-78
2022/09/01 02:36:46;;;;;;;;;18.50;16.25;;;;;23.84;57.08;100533.97;146600;654;46010;-74
2022/09/01 02:39:46;;;;;;;;;21.25;18.50;;;;;23.91;56.50;100533.03;146599;571;46010;-74
2022/09/01 02:42:51;;;;;;;;;18.25;16.50;;;;;23.92;56.19;100533.03;146595;622;46034;-75
2022/09/01 02:45:46;;;;;;;;;19.25;15.00;;;;;23.91;56.07;100536.56;146591;676;46018;-76
2022/09/01 02:48:56;;;;;;;;;20.00;17.00;;;;;23.89;56.18;100545.41;146598;569;46012;-77
2022/09/01 02:52:00;;;;;;;;;19.00;19.00;;;;;23.80;57.01;100541.06;146599;592;46915;-77
2022/09/01 02:55:04;;;;;;;;;21.50;17.75;;;;;23.68;57.60;100541.09;146597;617;46019;-76
2022/09/01 02:58:01;;;;;;;;;18.25;18.25;;;;;23.60;58.24;100540.25;146593;610;47010;-78
2022/09/01 03:01:02;;;;;;;;;19.00;17.75;;;;;23.32;57.36;100510.41;146592;605;46010;-82
2022/09/01 03:04:14;;;;;;;;;20.00;20.00;;;;;23.49;57.50;100543.84;146599;667;46010;-73
2022/09/01 03:07:12;;;;;;;;;20.00;19.00;;;;;23.53;58.18;100542.06;146596;591;46018;-75
2022/09/01 03:10:25;;;;;;;;;19.50;17.25;;;;;23.62;57.90;100543.78;146595;623;46012;-75
2022/09/01 03:13:24;;;;;;;;;22.00;21.50;;;;;23.69;58.03;100553.47;146599;708;46018;-78
2022/09/01 03:16:19;;;;;;;;;20.25;19.75;;;;;23.72;57.89;100564.03;146589;587;46011;-78
2022/09/01 03:19:23;;;;;;;;;21.25;19.50;;;;;23.72;57.82;100564.03;146597;586;46018;-80
2022/09/01 03:22:25;;;;;;;;;;;;;;;;;;;;;
2022/09/01 03:25:24;;;;;;;;;21.00;19.00;;;;;23.61;57.47;100565.81;146596;586;46018;-79
2022/09/01 03:28:20;;;;;;;;;16.75;16.00;;;;;23.56;57.29;100563.22;146596;603;46914;-82
2022/09/01 03:31:18;;;;;;;;;22.25;17.75;;;;;23.48;57.56;100560.59;146591;608;46019;-80
2022/09/01 03:34:19;;;;;;;;;21.00;20.25;;;;;23.42;57.79;100568.53;146595;673;46012;-83
2022/09/01 03:37:16;;;;;;;;;21.75;21.75;;;;;23.35;57.53;100561.53;146596;652;46018;-80
2022/09/01 03:40:17;;;;;;;;;22.75;21.50;;;;;23.30;57.50;100571.22;146598;585;46011;-82
2022/09/01 03:43:33;;;;;;;;;;;;;;;;;;;;;
2022/09/01 03:46:32;;;;;;;;;21.00;20.50;;;;;23.28;57.83;100563.31;146590;570;46019;-82
2022/09/01 03:49:30;;;;;;;;;22.00;20.75;;;;;23.26;58.21;100561.56;146597;566;46919;-81
2022/09/01 03:52:28;;;;;;;;;21.25;20.00;;;;;23.26;58.14;100558.91;146602;614;46010;-80
2022/09/01 03:55:26;;;;;;;;;21.00;20.25;;;;;23.26;58.04;100558.91;146596;628;46018;-80
2022/09/01 03:58:23;;;;;;;;;25.50;23.50;;;;;23.22;58.27;100565.09;146598;571;46018;-80
2022/09/01 04:01:18;;;;;;;;;25.50;23.50;;;;;23.17;58.14;100569.50;146592;573;47018;-84
2022/09/01 04:04:17;;;;;;;;;21.50;20.50;;;;;23.12;58.62;100560.72;146594;581;46018;-83
2022/09/01 04:07:12;;;;;;;;;21.00;20.00;;;;;23.09;58.95;100560.75;146596;572;46019;-82
2022/09/01 04:10:10;;;;;;;;;20.25;19.75;;;;;23.00;59.32;100565.16;146596;669;46029;-75
2022/09/01 04:13:17;;;;;;;;;21.00;18.00;;;;;22.96;58.67;100558.13;146597;607;46010;-83
2022/09/01 04:19:52;;;;;;;;;20.25;19.25;;;;;22.96;59.74;100558.13;146597;620;46018;-81
2022/09/01 04:22:49;;;;;;;;;19.25;19.25;;;;;22.95;59.67;100559.00;146598;616;46019;-81
2022/09/01 04:25:52;;;;;;;;;22.50;21.00;;;;;22.92;59.81;100548.38;146595;616;46918;-81
2022/09/01 04:28:54;;;;;;;;;24.50;22.50;;;;;22.90;59.46;100552.81;146598;572;46018;-83
2022/09/01 04:31:50;;;;;;;;;25.75;22.00;;;;;22.89;60.42;100553.69;146593;635;46019;-84
2022/09/01 04:34:57;;;;;;;;;23.00;21.00;;;;;22.91;60.23;100553.69;146596;591;46012;-83
2022/09/01 04:37:55;;;;;;;;;22.00;19.75;;;;;22.95;60.29;100553.69;146599;603;46010;-83
2022/09/01 04:41:00;;;;;;;;;24.00;23.50;;;;;23.01;60.46;100553.69;146597;592;46917;-84
2022/09/01 04:43:57;;;;;;;;;18.50;18.00;;;;;23.16;60.34;100566.00;146595;567;47008;-75
2022/09/01 04:46:51;;;;;;;;;24.75;21.75;;;;;23.41;60.54;100561.50;146593;585;47018;-76
2022/09/01 04:49:49;;;;;;;;;23.00;22.00;;;;;23.75;60.29;100558.72;146596;569;46012;-79
2022/09/01 04:53:03;;;;;;;;;23.25;21.25;;;;;22.29;57.83;100243.81;146600;590;46019;-80
2022/09/01 04:55:59;;;;;;;;;23.25;19.75;;;;;24.36;57.77;100560.97;146591;691;47916;-81
2022/09/01 04:59:15;;;;;;;;;20.25;17.50;;;;;24.56;56.33;100586.47;146595;573;46019;-83
2022/09/01 05:02:10;;;;;;;;;24.50;21.75;;;;;24.73;57.55;100560.66;146592;585;46018;-82
2022/09/01 05:05:02;;;;;;;;;25.75;22.25;;;;;24.85;57.20;100562.34;146595;606;46915;-80
2022/09/01 05:08:02;;;;;;;;;22.25;20.25;;;;;24.94;57.01;100561.38;146598;569;46019;-80
2022/09/01 05:11:08;;;;;;;;;20.75;20.25;;;;;24.99;57.15;100562.22;146596;583;46010;-83
2022/09/01 05:14:21;;;;;;;;;20.25;19.50;;;;;25.03;56.16;100558.63;146597;595;46011;-81
2022/09/01 05:17:24;;;;;;;;;26.50;21.25;;;;;25.08;56.16;100559.47;146587;563;49915;-78
2022/09/01 05:20:20;;;;;;;;;23.25;19.00;;;;;25.17;56.26;100564.69;146595;666;46010;-75
2022/09/01 05:23:18;;;;;;;;;24.00;22.00;;;;;25.30;55.63;100565.44;146598;615;46030;-72
2022/09/01 05:26:55;;;;;;;;;26.00;21.75;;;;;25.44;55.30;100559.94;146597;644;46018;-74
2022/09/01 05:30:03;;;;;;;;;21.50;19.75;;;;;25.65;55.58;100562.31;146595;567;46019;-75
2022/09/01 05:33:15;;;;;;;;;23.50;21.25;;;;;25.85;55.34;100561.19;146593;578;46018;-75
2022/09/01 05:36:16;;;;;;;;;23.00;21.50;;;;;26.01;54.71;100560.06;146595;731;46019;-75
2022/09/01 05:39:37;;;;;;;;;22.50;19.75;;;;;24.52;53.71;100282.59;146596;613;46018;-81
2022/09/01 05:42:38;;;;;;;;;24.50;19.75;;;;;26.38;54.60;100559.50;146595;598;47010;-80
2022/09/01 05:45:32;;;;;;;;;24.75;23.00;;;;;26.61;53.59;100565.34;146595;588;46012;-79
2022/09/01 05:48:27;;;;;;;;;25.00;22.00;;;;;26.80;52.35;100570.34;146592;571;46018;-75
2022/09/01 05:51:22;;;;;;;;;26.00;22.75;;;;;26.89;53.11;100572.84;146596;565;46019;-75
2022/09/01 05:54:26;;;;;;;;;20.00;19.00;;;;;27.06;52.64;100576.06;146591;564;46018;-76
2022/09/01 05:57:26;;;;;;;;;28.75;24.00;;;;;27.30;52.72;100574.75;146597;570;46018;-79
2022/09/01 06:00:37;;;;;;;;;22.50;22.50;;;;;27.57;52.43;100567.97;146592;627;47012;-75
2022/09/01 06:03:40;;;;;;;;;22.50;20.50;;;;;27.83;52.54;100561.22;146591;584;46034;-76
2022/09/01 06:06:39;;;;;;;;;21.50;20.50;;;;;28.08;51.43;100557.09;146594;572;46019;-74
2022/09/01 06:09:47;;;;;;;;;21.25;20.75;;;;;26.74;51.01;100280.56;146596;588;47012;-75
2022/09/01 06:12:44;;;;;;;;;25.75;24.50;;;;;28.60;50.73;100554.97;146594;575;46033;-77
2022/09/01 06:15:43;;;;;;;;;20.50;20.00;;;;;28.81;50.38;100550.81;146593;566;46018;-77
2022/09/01 06:18:52;;;;;;;;;20.50;20.25;;;;;27.38;50.02;100279.03;146596;570;46010;-74
2022/09/01 06:21:50;;;;;;;;;23.50;20.75;;;;;29.12;50.19;100555.37;146596;595;46019;-74
2022/09/01 06:24:42;;;;;;;;;20.00;19.25;;;;;29.20;49.81;100551.56;146592;580;46012;-75
2022/09/01 06:27:43;;;;;;;;;22.50;21.25;;;;;29.31;49.14;100553.03;146596;608;46018;-77
2022/09/01 06:30:42;;;;;;;;;18.00;18.00;;;;;29.30;49.42;100540.62;146593;571;46031;-79
2022/09/01 06:33:44;;;;;;;;;21.00;17.75;;;;;29.29;48.98;100549.56;146591;563;46018;-83
2022/09/01 06:36:44;;;;;;;;;19.50;19.50;;;;;29.23;49.47;100545.28;146598;569;46011;-84
2022/09/01 06:39:40;;;;;;;;;21.00;18.75;;;;;29.20;49.91;100546.22;146598;625;46018;-86
2022/09/01 06:42:45;;;;;;;;;25.75;20.50;;;;;29.21;50.13;100549.78;146593;571;47018;-81
2022/09/01 06:45:59;;;;;;;;;21.75;19.00;;;;;27.51;50.15;100269.84;146595;617;46012;-81
2022/09/01 06:49:11;;;;;;;;;20.00;18.00;;;;;28.99;50.81;100538.78;146600;630;46010;-85
2022/09/01 06:52:14;;;;;;;;;18.75;18.00;;;;;27.22;50.83;100257.25;146596;579;46019;-82
2022/09/01 06:55:22;;;;;;;;;19.50;19.50;;;;;28.84;51.63;100540.06;146590;611;47914;-79
2022/09/01 06:58:24;;;;;;;;;20.25;18.75;;;;;28.88;51.43;100536.44;146600;587;46008;-79
2022/09/01 07:01:23;;;;;;;;;21.75;19.00;;;;;28.99;51.12;100539.66;146598;629;46915;-80
2022/09/01 07:04:24;;;;;;;;;19.00;19.00;;;;;29.16;50.34;100544.56;146597;590;46018;-78
2022/09/01 07:07:30;;;;;;;;;20.75;20.50;;;;;29.24;49.90;100534.53;146595;606;46019;-79
2022/09/01 07:10:23;;;;;;;;;21.00;19.75;;;;;29.23;48.67;100535.47;146597;611;46010;-79
2022/09/01 07:13:34;;;;;;;;;20.25;18.00;;;;;29.27;50.33;100535.37;146594;572;47012;-81
2022/09/01 07:16:39;;;;;;;;;24.25;23.50;;;;;29.46;51.00;100545.47;146599;625;46018;-90
2022/09/01 07:19:34;;;;;;;;;22.00;18.75;;;;;29.74;50.39;100550.00;146596;687;46018;-89
2022/09/01 07:22:28;;;;;;;;;24.75;22.00;;;;;29.98;49.99;100552.84;146597;598;47008;-87
2022/09/01 07:25:25;;;;;;;;;21.00;20.00;;;;;30.11;49.47;100560.41;146598;574;46012;-79
2022/09/01 07:28:20;;;;;;;;;13.75;11.75;;;;;30.24;48.13;100558.25;146599;608;46019;-84
2022/09/01 07:31:23;;;;;;;;;21.00;20.25;;;;;30.29;48.03;100564.34;146594;596;47010;-82
2022/09/01 07:34:29;;;;;;;;;20.50;19.75;;;;;30.33;48.57;100559.75;146597;613;46019;-81
2022/09/01 07:37:36;;;;;;;;;21.00;21.00;;;;;30.42;48.53;100561.25;146596;563;46018;-78
2022/09/01 07:40:28;;;;;;;;;21.50;18.75;;;;;30.50;47.67;100559.19;146595;564;46018;-80
2022/09/01 07:43:40;;;;;;;;;24.25;20.75;;;;;28.88;47.82;100295.34;146597;590;46915;-75
2022/09/01 07:46:39;;;;;;;;;21.25;17.50;;;;;30.47;47.77;100564.62;146601;632;46018;-80
2022/09/01 07:49:35;;;;;;;;;23.00;20.25;;;;;30.50;48.67;100576.13;146596;681;46019;-78
2022/09/01 07:52:28;;;;;;;;;20.25;19.25;;;;;30.56;47.53;100567.00;146601;579;46010;-80
2022/09/01 07:55:28;;;;;;;;;23.25;21.00;;;;;30.64;47.42;100574.78;146602;625;46012;-85
2022/09/01 07:58:44;;;;;;;;;21.75;20.00;;;;;29.19;47.38;100322.88;146600;564;46010;-79
2022/09/01 08:01:37;;;;;;;;;17.25;16.50;;;;;30.78;47.04;100581.44;146596;566;46018;-78
2022/09/01 08:04:34;;;;;;;;;22.75;20.50;;;;;30.91;47.42;100579.22;146599;599;46019;-81
2022/09/01 08:07:47;;;;;;;;;19.50;18.50;;;;;31.03;45.78;100578.78;146601;635;46010;-79
2022/09/01 08:11:04;;;;;;;;;22.25;22.25;;;;;31.13;46.75;100586.47;146600;570;46018;-80
2022/09/01 08:14:04;;;;;;;;;19.75;18.75;;;;;31.23;47.08;100587.88;146598;636;46915;-79
2022/09/01 08:16:56;;;;;;;;;19.50;18.50;;;;;31.44;45.92;100583.59;146597;573;46018;-77
2022/09/01 08:19:59;;;;;;;;;21.25;20.75;;;;;31.59;46.43;100576.75;146595;630;46018;-76
2022/09/01 08:22:56;;;;;;;;;24.75;20.25;;;;;31.67;46.12;100578.19;146600;643;46018;-80
2022/09/01 08:26:00;;;;;;;;;22.00;20.00;;;;;31.82;45.78;100574.06;146600;577;46018;-77
2022/09/01 08:28:58;;;;;;;;;24.50;21.25;;;;;31.96;45.01;100568.16;146595;667;46019;-79
2022/09/01 08:32:04;;;;;;;;;21.25;19.25;;;;;32.14;44.39;100571.94;146596;616;46018;-80
2022/09/01 08:35:00;;;;;;;;;21.00;20.00;;;;;32.33;44.68;100572.91;146594;577;47917;-80
2022/09/01 08:38:02;;;;;;;;;19.75;19.75;;;;;32.42;44.50;100568.97;146599;583;46010;-75
2022/09/01 08:40:59;;;;;;;;;17.25;16.25;;;;;32.43;43.79;100570.72;146600;583;46023;-75
2022/09/01 08:44:39;;;;;;;;;18.25;18.00;;;;;31.62;43.81;100440.84;146599;667;46916;-77
2022/09/01 08:47:46;;;;;;;;;23.50;20.75;;;;;32.31;43.73;100547.97;146602;675;46010;-79
2022/09/01 08:50:54;;;;;;;;;21.25;20.75;;;;;32.37;43.89;100544.16;146592;582;47915;-79
2022/09/01 08:54:19;;;;;;;;;17.75;17.50;;;;;32.44;44.68;100540.31;146594;697;47008;-79
2022/09/01 08:57:59;;;;;;;;;20.25;20.00;;;;;30.58;44.59;100212.81;146601;567;46019;-76
2022/09/01 09:01:23;;;;;;;;;20.50;20.25;;;;;32.55;43.76;100543.38;146599;593;47008;-78
2022/09/01 09:05:04;;;;;;;;;19.00;18.25;;;;;31.34;44.72;100327.66;146597;631;46012;-76
2022/09/01 09:08:34;;;;;;;;;19.50;17.75;;;;;32.58;43.55;100532.53;146593;576;46008;-78
2022/09/01 09:12:01;;;;;;;;;19.50;19.25;;;;;32.48;43.27;100530.31;146594;589;46019;-79
2022/09/01 09:15:26;;;;;;;;;22.50;21.50;;;;;32.41;44.34;100532.34;146598;629;46018;-77
2022/09/01 09:18:54;;;;;;;;;20.50;19.00;;;;;32.40;44.21;100526.13;146597;578;46019;-77
2022/09/01 09:22:12;;;;;;;;;;;;;;;;;;;;;
2022/09/01 09:25:23;;;;;;;;;20.75;18.50;;;;;32.66;42.91;100516.97;146593;647;47010;-76
2022/09/01 09:28:21;;;;;;;;;19.25;18.75;;;;;32.74;41.22;100521.13;146597;596;46019;-77
2022/09/01 09:31:47;;;;;;;;;17.75;15.25;;;;;31.33;43.25;100266.94;146603;705;46010;-80
2022/09/01 09:34:59;;;;;;;;;18.50;17.75;;;;;31.04;41.91;100216.34;146596;679;46021;-74
2022/09/01 09:37:57;;;;;;;;;18.00;16.25;;;;;32.83;40.48;100518.03;146597;720;46030;-77
2022/09/01 09:41:25;;;;;;;;;22.00;18.25;;;;;32.81;42.82;100511.87;146592;603;46010;-75
2022/09/01 09:44:35;;;;;;;;;19.75;19.00;;;;;32.83;42.98;100512.66;146596;579;46018;-77
2022/09/01 09:47:57;;;;;;;;;19.00;18.75;;;;;32.85;43.15;100516.16;146600;582;46018;-74
2022/09/01 09:50:49;;;;;;;;;20.00;18.25;;;;;32.88;42.85;100513.34;146596;573;46012;-77
2022/09/01 09:53:43;;;;;;;;;19.75;18.75;;;;;32.82;44.20;100522.53;146599;577;47008;-76
2022/09/01 09:56:40;;;;;;;;;19.75;19.00;;;;;32.86;44.06;100516.06;146594;575;46019;-76
2022/09/01 10:00:04;;;;;;;;;22.00;22.00;;;;;32.92;44.72;100517.63;146597;563;46018;-77
2022/09/01 10:03:19;;;;;;;;;18.50;18.50;;;;;32.91;44.25;100523.06;146596;639;46018;-78
2022/09/01 10:06:48;;;;;;;;;22.00;20.75;;;;;31.39;44.96;100247.97;146609;575;46010;-77
2022/09/01 10:10:00;;;;;;;;;25.00;21.75;;;;;33.00;45.41;100515.50;146613;592;46913;-77
2022/09/01 10:12:52;;;;;;;;;18.75;18.25;;;;;33.04;44.74;100519.78;146612;590;45026;-77
2022/09/01 10:15:59;;;;;;;;;24.00;21.25;;;;;33.05;45.52;100518.84;146612;584;45914;-76
2022/09/01 10:18:59;;;;;;;;;20.25;18.75;;;;;33.10;45.15;100515.97;146612;595;46018;-79
2022/09/01 10:21:53;;;;;;;;;20.50;20.00;;;;;33.08;45.09;100518.69;146613;686;45022;-76
2022/09/01 10:24:57;;;;;;;;;29.00;23.00;;;;;32.98;45.95;100522.75;146615;570;45018;-77
2022/09/01 10:28:07;;;;;;;;;;;;;;;;;;;;;
2022/09/01 10:31:04;;;;;;;;;22.25;21.75;;;;;33.09;45.67;100522.28;146611;601;47006;-75
2022/09/01 10:34:15;;;;;;;;;16.75;16.00;;;;;33.15;45.73;100524.69;146618;589;45999;-78
2022/09/01 10:37:24;;;;;;;;;20.25;20.25;;;;;33.21;45.63;100518.13;146614;650;45018;-78
2022/09/01 10:40:57;;;;;;;;;;;;;;;;;;;;;
2022/09/01 10:43:54;;;;;;;;;22.50;21.75;;;;;33.18;45.48;100521.87;146612;634;46916;-76
2022/09/01 10:46:58;;;;;;;;;25.50;21.50;;;;;33.19;45.72;100512.84;146616;599;45019;-79
2022/09/01 10:50:41;;;;;;;;;23.25;22.25;;;;;31.95;46.48;100285.75;146620;584;45010;-78
2022/09/01 10:54:04;;;;;;;;;26.25;22.50;;;;;31.79;45.61;100256.97;146612;631;46010;-76
2022/09/01 10:57:06;;;;;;;;;19.75;19.75;;;;;33.25;45.94;100509.00;146615;613;45018;-77
2022/09/01 11:00:09;;;;;;;;;23.50;21.00;;;;;33.24;45.60;100510.84;146617;685;45915;-78
2022/09/01 11:03:54;;;;;;;;;22.00;20.75;;;;;32.45;45.92;100364.94;146615;599;45018;-76
2022/09/01 11:07:07;;;;;;;;;22.25;21.75;;;;;33.20;45.83;100495.78;146620;645;46010;-80
2022/09/01 11:10:48;;;;;;;;;20.75;20.00;;;;;31.63;45.86;100244.25;146611;732;46012;-80
2022/09/01 11:13:49;;;;;;;;;24.25;23.00;;;;;33.04;46.03;100492.06;146614;575;46010;-78
2022/09/01 11:16:44;;;;;;;;;22.00;20.75;;;;;33.01;45.23;100495.75;146611;579;45018;-77
2022/09/01 11:19:44;;;;;;;;;24.25;22.50;;;;;32.92;46.56;100492.59;146611;588;46913;-79
2022/09/01 11:22:44;;;;;;;;;20.75;19.75;;;;;32.88;45.85;100486.47;146620;584;45018;-79
2022/09/01 11:26:14;;;;;;;;;22.75;21.75;;;;;32.90;46.32;100484.63;146614;576;45019;-76
2022/09/01 11:29:45;;;;;;;;;;;;;;;;;;;;;
2022/09/01 11:32:56;;;;;;;;;21.75;21.75;;;;;32.86;45.72;100478.47;146617;597;46011;-76
2022/09/01 11:35:49;;;;;;;;;21.75;21.50;;;;;32.83;45.90;100475.94;146618;613;46010;-74
2022/09/01 11:39:02;;;;;;;;;20.75;19.75;;;;;32.89;47.04;100474.78;146616;586;45913;-77
2022/09/01 11:42:43;;;;;;;;;22.25;21.00;;;;;31.78;46.34;100237.34;146619;634;46010;-74
2022/09/01 11:45:40;;;;;;;;;18.75;17.50;;;;;33.25;47.37;100463.34;146612;602;45018;-73
2022/09/01 11:48:32;;;;;;;;;19.25;19.00;;;;;33.35;47.11;100460.13;146614;591;45019;-67
2022/09/01 11:51:30;;;;;;;;;19.00;18.50;;;;;33.38;47.32;100463.63;146616;573;46010;-79
2022/09/01 11:54:24;;;;;;;;;23.25;22.25;;;;;33.39;47.07;100452.78;146616;608;45018;-79
2022/09/01 11:57:40;;;;;;;;;19.50;19.50;;;;;33.35;46.68;100456.56;146614;692;46010;-82
2022/09/01 12:00:43;;;;;;;;;15.00;13.25;;;;;33.31;46.74;100463.03;146616;601;46010;-78
2022/09/01 12:03:44;;;;;;;;;19.00;19.00;;;;;33.24;46.55;100440.97;146607;627;45913;-78
2022/09/01 12:06:44;;;;;;;;;20.50;17.75;;;;;33.19;46.39;100456.44;146598;609;46018;-76
2022/09/01 12:10:06;;;;;;;;;;;;;;;;;;;;;
2022/09/01 12:13:28;;;;;;;;;16.75;16.25;;;;;32.86;46.33;100450.75;146596;571;46019;-83
2022/09/01 12:16:27;;;;;;;;;19.50;19.50;;;;;32.76;46.92;100446.75;146595;580;46018;-82
2022/09/01 12:19:38;;;;;;;;;22.00;20.75;;;;;32.63;46.81;100444.63;146592;572;46018;-81
2022/09/01 12:22:40;;;;;;;;;18.75;18.25;;;;;32.57;47.65;100436.84;146594;630;46018;-86
2022/09/01 12:25:38;;;;;;;;;23.75;21.75;;;;;32.54;47.26;100444.16;146597;593;46012;-78
2022/09/01 12:28:47;;;;;;;;;18.00;16.75;;;;;32.47;47.32;100432.84;146596;633;46011;-81
2022/09/01 12:31:53;;;;;;;;;17.75;16.00;;;;;32.47;47.43;100426.59;146597;565;46018;-77
2022/09/01 12:35:10;;;;;;;;;19.00;18.25;;;;;32.56;47.09;100423.50;146593;636;46019;-78
2022/09/01 12:38:27;;;;;;;;;19.50;17.75;;;;;32.74;46.76;100417.28;146599;576;46010;-78
2022/09/01 12:41:50;;;;;;;;;;;;;;;;;;;;;
2022/09/01 12:44:52;;;;;;;;;15.75;15.50;;;;;32.98;45.62;100420.69;146597;647;46025;-79
2022/09/01 12:48:05;;;;;;;;;;;;;;;;;;;;;
2022/09/01 12:51:08;;;;;;;;;19.50;19.00;;;;;32.99;45.92;100409.03;146592;565;46018;-85
2022/09/01 12:54:11;;;;;;;;;17.00;16.75;;;;;32.98;46.15;100412.63;146597;613;46018;-86
2022/09/01 12:57:44;;;;;;;;;15.25;13.50;;;;;31.47;45.32;100158.28;146598;593;46019;-81
2022/09/01 13:01:01;;;;;;;;;17.25;15.25;;;;;32.92;46.01;100407.50;146594;622;46018;-81
2022/09/01 13:04:53;;;;;;;;;17.50;15.50;;;;;31.48;45.90;100156.47;146597;586;46019;-78
2022/09/01 13:07:49;;;;;;;;;14.75;14.25;;;;;32.92;45.49;100399.44;146598;683;46018;-88
2022/09/01 13:11:00;;;;;;;;;13.75;12.50;;;;;32.74;43.42;100393.13;146598;571;45045;-79
2022/09/01 13:14:06;;;;;;;;;;;;;;;;;;;;;
2022/09/01 13:17:11;;;;;;;;;16.75;15.25;;;;;32.56;45.80;100388.63;146596;569;47010;-83
2022/09/01 13:20:18;;;;;;;;;17.00;16.25;;;;;32.56;46.57;100389.47;146590;650;46019;-84
2022/09/01 13:23:13;;;;;;;;;17.00;16.50;;;;;32.62;46.86;100381.16;146594;583;46026;-82
2022/09/01 13:26:25;;;;;;;;;15.75;15.00;;;;;32.67;47.17;100384.47;146596;591;46018;-82
2022/09/01 13:29:22;;;;;;;;;17.50;16.25;;;;;32.68;46.33;100374.62;146599;611;46010;-77
2022/09/01 13:32:19;;;;;;;;;16.75;15.75;;;;;32.62;46.36;100370.41;146593;639;46018;-82
2022/09/01 13:35:28;;;;;;;;;16.75;14.00;;;;;32.54;46.38;100367.19;146598;566;46010;-80
2022/09/01 13:38:35;;;;;;;;;16.75;16.00;;;;;30.89;46.66;100106.34;146591;594;46018;-85
2022/09/01 13:41:41;;;;;;;;;17.25;15.75;;;;;32.28;47.58;100364.78;146595;581;47010;-84
2022/09/01 13:44:39;;;;;;;;;14.50;14.00;;;;;32.23;48.38;100374.84;146595;628;47012;-85
2022/09/01 13:47:35;;;;;;;;;16.00;15.75;;;;;32.16;47.70;100374.25;146597;617;46012;-85
2022/09/01 13:50:33;;;;;;;;;16.75;13.50;;;;;32.14;47.32;100366.25;146592;698;47010;-86
2022/09/01 13:53:28;;;;;;;;;17.25;15.25;;;;;32.13;47.36;100361.84;146591;616;47008;-82
2022/09/01 13:56:24;;;;;;;;;17.75;15.50;;;;;32.08;47.70;100354.94;146595;632;47010;-88
2022/09/01 13:59:22;;;;;;;;;21.50;17.25;;;;;32.09;47.65;100356.66;146601;629;46008;-86
2022/09/01 14:02:32;;;;;;;;;;;;;;;;;;;;;
2022/09/01 14:05:38;;;;;;;;;20.75;17.75;;;;;32.27;46.81;100363.03;146597;626;46027;-76
2022/09/01 14:08:33;;;;;;;;;17.25;16.00;;;;;32.25;46.74;100362.25;146599;605;46018;-79
2022/09/01 14:11:43;;;;;;;;;16.25;15.75;;;;;30.69;46.68;100107.16;146597;578;47019;-80
2022/09/01 14:14:37;;;;;;;;;15.75;15.50;;;;;32.09;46.14;100372.75;146598;661;46915;-78
2022/09/01 14:17:34;;;;;;;;;19.00;16.50;;;;;32.03;46.89;100368.56;146598;592;46018;-84
2022/09/01 14:20:49;;;;;;;;;13.75;13.75;;;;;32.00;46.18;100362.47;146596;567;46018;-83
2022/09/01 14:23:45;;;;;;;;;17.50;15.00;;;;;31.80;46.36;100363.25;146599;570;46018;-89
2022/09/01 14:26:41;;;;;;;;;18.25;17.00;;;;;31.68;47.28;100356.59;146598;569;46010;-82
2022/09/01 14:29:43;;;;;;;;;17.25;15.25;;;;;31.52;48.17;100376.00;146598;719;47008;-88